createdAt,value
2022-11-22T00:00:42.062Z,9.70
2022-11-22T00:02:44.470Z,9.70
2022-11-22T00:04:46.264Z,9.70
2022-11-22T00:06:48.410Z,9.70
2022-11-22T00:08:50.240Z,9.80
2022-11-22T00:10:52.510Z,9.80
2022-11-22T00:12:54.495Z,9.80
2022-11-22T00:14:57.204Z,9.80
2022-11-22T00:16:58.987Z,9.80
2022-11-22T00:19:02.296Z,9.80
2022-11-22T00:21:08.786Z,9.80
2022-11-22T00:23:10.766Z,9.80
2022-11-22T00:25:13.980Z,9.80
2022-11-22T00:27:17.294Z,9.80
2022-11-22T00:29:19.650Z,9.80
2022-11-22T00:31:22.615Z,9.90
2022-11-22T00:33:24.390Z,9.90
2022-11-22T00:35:26.170Z,9.90
2022-11-22T00:37:27.915Z,9.90
2022-11-22T00:39:29.925Z,9.90
2022-11-22T00:41:31.924Z,9.90
2022-11-22T00:43:33.751Z,9.90
2022-11-22T00:45:35.558Z,9.90
2022-11-22T00:47:37.294Z,9.90
2022-11-22T00:49:39.027Z,9.90
2022-11-22T00:51:43.730Z,9.90
2022-11-22T00:53:45.633Z,9.90
2022-11-22T00:55:47.739Z,9.90
2022-11-22T00:57:49.511Z,9.80
2022-11-22T00:59:51.343Z,9.90
2022-11-22T01:01:55.878Z,9.90
2022-11-22T01:03:57.689Z,9.90
2022-11-22T01:05:59.485Z,9.90
2022-11-22T01:08:01.305Z,9.90
2022-11-22T01:10:03.422Z,9.90
2022-11-22T01:12:05.622Z,9.90
2022-11-22T01:14:10.084Z,9.90
2022-11-22T01:16:12.793Z,10.00
2022-11-22T01:18:14.856Z,9.80
2022-11-22T01:20:18.477Z,9.80
2022-11-22T01:22:20.776Z,9.80
2022-11-22T01:24:22.556Z,9.90
2022-11-22T01:26:24.788Z,9.90
2022-11-22T01:28:27.248Z,9.90
2022-11-22T01:30:28.990Z,10.00
2022-11-22T01:32:30.752Z,9.80
2022-11-22T01:34:32.655Z,9.80
2022-11-22T01:36:34.408Z,9.80
2022-11-22T01:38:36.370Z,9.80
2022-11-22T01:40:38.697Z,9.80
2022-11-22T01:42:50.229Z,9.80
2022-11-22T01:44:53.807Z,9.80
2022-11-22T01:47:11.856Z,9.70
2022-11-22T01:49:18.376Z,9.80
2022-11-22T01:51:29.685Z,9.70
2022-11-22T01:53:36.836Z,9.70
2022-11-22T01:55:39.495Z,9.70
2022-11-22T01:57:44.094Z,9.70
2022-11-22T01:59:53.614Z,9.70
2022-11-22T02:01:58.461Z,9.70
2022-11-22T02:04:03.960Z,9.70
2022-11-22T02:06:06.938Z,9.60
2022-11-22T02:08:14.472Z,9.60
2022-11-22T02:10:20.822Z,9.60
2022-11-22T02:12:27.377Z,9.60
2022-11-22T02:14:30.786Z,9.60
2022-11-22T02:16:35.422Z,9.50
2022-11-22T02:18:37.816Z,9.50
2022-11-22T02:20:39.929Z,9.50
2022-11-22T02:23:03.364Z,9.50
2022-11-22T02:25:43.474Z,9.50
2022-11-22T02:27:46.366Z,9.50
2022-11-22T02:29:48.093Z,9.50
2022-11-22T02:31:49.843Z,9.40
2022-11-22T02:33:51.559Z,9.50
2022-11-22T02:35:53.757Z,9.40
2022-11-22T02:37:58.852Z,9.40
2022-11-22T02:40:08.848Z,9.40
2022-11-22T02:42:11.245Z,9.40
2022-11-22T02:44:14.034Z,9.40
2022-11-22T02:46:20.587Z,9.40
2022-11-22T02:48:22.586Z,9.40
2022-11-22T02:50:24.331Z,9.30
2022-11-22T02:52:26.189Z,9.30
2022-11-22T02:54:27.894Z,9.30
2022-11-22T02:56:29.578Z,9.30
2022-11-22T02:58:31.313Z,9.20
2022-11-22T03:00:35.705Z,9.20
2022-11-22T03:02:37.549Z,9.20
2022-11-22T03:04:39.272Z,9.20
2022-11-22T03:06:40.984Z,9.20
2022-11-22T03:08:42.756Z,9.20
2022-11-22T03:10:44.473Z,9.20
2022-11-22T03:12:46.531Z,9.20
2022-11-22T03:14:48.252Z,9.20
2022-11-22T03:16:50.144Z,9.20
2022-11-22T03:18:51.994Z,9.20
2022-11-22T03:20:53.835Z,9.20
2022-11-22T03:22:55.624Z,9.20
2022-11-22T03:24:57.337Z,9.10
2022-11-22T03:26:59.536Z,9.10
2022-11-22T03:29:01.716Z,9.10
2022-11-22T03:31:07.601Z,9.00
2022-11-22T03:33:09.747Z,9.00
2022-11-22T03:35:11.837Z,8.90
2022-11-22T03:37:13.548Z,8.90
2022-11-22T03:39:15.337Z,8.90
2022-11-22T03:41:17.900Z,8.90
2022-11-22T03:43:19.933Z,8.90
2022-11-22T03:45:21.604Z,8.80
2022-11-22T03:47:23.317Z,8.90
2022-11-22T03:49:25.020Z,8.80
2022-11-22T03:51:27.315Z,8.70
2022-11-22T03:53:29.065Z,8.70
2022-11-22T03:55:31.479Z,8.70
2022-11-22T03:57:33.178Z,8.70
2022-11-22T03:59:34.963Z,8.70
2022-11-22T04:01:36.758Z,8.70
2022-11-22T04:03:38.810Z,8.60
2022-11-22T04:05:40.586Z,8.60
2022-11-22T04:07:42.750Z,8.50
2022-11-22T04:09:44.536Z,8.50
2022-11-22T04:11:46.211Z,8.60
2022-11-22T04:14:06.778Z,8.50
2022-11-22T04:16:10.877Z,8.50
2022-11-22T04:18:13.885Z,8.50
2022-11-22T04:20:42.766Z,8.50
2022-11-22T04:22:44.477Z,8.50
2022-11-22T04:25:04.746Z,8.40
2022-11-22T04:27:06.522Z,8.50
2022-11-22T04:29:10.478Z,8.50
2022-11-22T04:31:31.082Z,8.50
2022-11-22T04:33:33.243Z,8.50
2022-11-22T04:35:35.076Z,8.50
2022-11-22T04:37:36.804Z,8.50
2022-11-22T04:39:38.627Z,8.40
2022-11-22T04:41:40.435Z,8.40
2022-11-22T04:44:17.755Z,8.30
2022-11-22T04:46:19.470Z,8.30
2022-11-22T04:48:21.288Z,8.30
2022-11-22T04:50:41.878Z,8.30
2022-11-22T04:52:55.889Z,8.30
2022-11-22T04:54:57.660Z,8.30
2022-11-22T04:56:59.437Z,8.30
2022-11-22T04:59:01.228Z,8.30
2022-11-22T05:01:03.594Z,8.30
2022-11-22T05:03:06.315Z,8.30
2022-11-22T05:05:08.711Z,8.30
2022-11-22T05:07:10.495Z,8.30
2022-11-22T05:09:12.346Z,8.30
2022-11-22T05:11:15.450Z,8.30
2022-11-22T05:13:43.089Z,8.20
2022-11-22T05:15:45.172Z,8.30
2022-11-22T05:17:46.889Z,8.20
2022-11-22T05:19:49.449Z,8.20
2022-11-22T05:21:51.217Z,8.30
2022-11-22T05:23:56.664Z,8.20
2022-11-22T05:25:58.579Z,8.20
2022-11-22T05:28:06.699Z,8.20
2022-11-22T05:30:09.141Z,8.20
2022-11-22T05:32:10.878Z,8.10
2022-11-22T05:34:12.622Z,8.10
2022-11-22T05:36:14.378Z,8.10
2022-11-22T05:38:16.721Z,8.00
2022-11-22T05:40:18.459Z,8.00
2022-11-22T05:42:20.234Z,8.00
2022-11-22T05:44:23.809Z,8.00
2022-11-22T05:46:28.422Z,8.00
2022-11-22T05:48:30.182Z,8.00
2022-11-22T05:50:31.926Z,8.00
2022-11-22T05:52:34.210Z,8.00
2022-11-22T05:54:36.021Z,8.10
2022-11-22T05:56:38.007Z,8.10
2022-11-22T05:58:40.046Z,8.00
2022-11-22T06:00:41.772Z,8.10
2022-11-22T06:02:43.690Z,8.10
2022-11-22T06:04:45.412Z,8.10
2022-11-22T06:06:47.854Z,8.10
2022-11-22T06:08:51.203Z,8.20
2022-11-22T06:10:52.999Z,8.10
2022-11-22T06:12:55.490Z,8.10
2022-11-22T06:14:57.578Z,8.10
2022-11-22T06:16:59.353Z,8.00
2022-11-22T06:19:01.086Z,8.10
2022-11-22T06:21:08.702Z,8.10
2022-11-22T06:23:10.668Z,8.10
2022-11-22T06:25:12.401Z,8.10
2022-11-22T06:27:14.708Z,8.10
2022-11-22T06:29:16.464Z,8.10
2022-11-22T06:31:21.244Z,8.00
2022-11-22T06:33:23.026Z,8.00
2022-11-22T06:35:24.804Z,8.10
2022-11-22T06:37:26.733Z,8.00
2022-11-22T06:39:28.771Z,7.90
2022-11-22T06:41:37.037Z,7.90
2022-11-22T06:43:45.101Z,7.90
2022-11-22T06:45:49.907Z,8.00
2022-11-22T06:47:51.678Z,7.90
2022-11-22T06:49:53.460Z,7.90
2022-11-22T06:51:55.456Z,7.90
2022-11-22T06:53:58.067Z,7.90
2022-11-22T06:56:08.622Z,7.90
2022-11-22T06:58:10.813Z,7.90
2022-11-22T07:00:13.731Z,7.90
2022-11-22T07:02:15.516Z,7.90
2022-11-22T07:04:17.255Z,8.00
2022-11-22T07:06:19.555Z,7.90
2022-11-22T07:08:22.151Z,7.90
2022-11-22T07:10:23.985Z,7.90
2022-11-22T07:12:26.531Z,7.90
2022-11-22T07:14:28.380Z,7.50
2022-11-22T07:16:30.508Z,7.80
2022-11-22T07:18:32.931Z,7.80
2022-11-22T07:20:34.808Z,7.80
2022-11-22T07:22:36.574Z,7.90
2022-11-22T07:24:38.319Z,7.90
2022-11-22T07:26:40.040Z,7.90
2022-11-22T07:28:42.830Z,7.90
2022-11-22T07:30:44.618Z,7.90
2022-11-22T07:32:49.461Z,7.90
2022-11-22T07:34:51.276Z,8.00
2022-11-22T07:36:58.629Z,8.00
2022-11-22T07:39:02.913Z,8.00
2022-11-22T07:41:05.549Z,8.00
2022-11-22T07:43:07.455Z,8.00
2022-11-22T07:45:09.998Z,8.00
2022-11-22T07:47:11.902Z,8.00
2022-11-22T07:49:13.885Z,8.00
2022-11-22T07:51:16.169Z,7.90
2022-11-22T07:53:18.442Z,7.90
2022-11-22T07:55:20.185Z,7.90
2022-11-22T07:57:22.146Z,7.90
2022-11-22T07:59:23.985Z,8.00
2022-11-22T08:01:25.790Z,7.90
2022-11-22T08:03:29.336Z,7.90
2022-11-22T08:05:31.433Z,7.90
2022-11-22T08:07:33.344Z,7.90
2022-11-22T08:09:36.700Z,7.90
2022-11-22T08:11:38.370Z,7.90
2022-11-22T08:13:40.726Z,7.80
2022-11-22T08:15:42.430Z,7.80
2022-11-22T08:17:44.630Z,8.10
2022-11-22T08:19:46.835Z,7.80
2022-11-22T08:21:51.633Z,7.80
2022-11-22T08:24:00.330Z,7.70
2022-11-22T08:26:02.462Z,7.80
2022-11-22T08:28:04.416Z,7.80
2022-11-22T08:30:06.589Z,7.80
2022-11-22T08:32:08.428Z,7.80
2022-11-22T08:34:10.190Z,7.80
2022-11-22T08:36:12.382Z,7.80
2022-11-22T08:38:14.415Z,7.80
2022-11-22T08:40:16.209Z,7.80
2022-11-22T08:42:18.568Z,7.80
2022-11-22T08:44:20.413Z,7.80
2022-11-22T08:46:22.158Z,7.80
2022-11-22T08:48:25.593Z,7.80
2022-11-22T08:50:27.371Z,7.70
2022-11-22T08:52:29.178Z,7.80
2022-11-22T08:54:34.974Z,7.70
2022-11-22T08:56:39.625Z,7.70
2022-11-22T08:58:41.859Z,7.80
2022-11-22T09:00:44.168Z,7.80
2022-11-22T09:02:46.033Z,7.80
2022-11-22T09:04:47.890Z,7.80
2022-11-22T09:11:33.932Z,7.80
2022-11-22T09:13:35.993Z,7.90
2022-11-22T09:15:38.177Z,7.90
2022-11-22T09:17:39.994Z,7.90
2022-11-22T09:19:41.740Z,7.90
2022-11-22T09:21:43.620Z,7.90
2022-11-22T09:23:47.527Z,7.90
2022-11-22T09:25:57.708Z,8.00
2022-11-22T09:28:02.613Z,8.00
2022-11-22T09:30:04.873Z,8.00
2022-11-22T09:32:10.244Z,8.00
2022-11-22T09:34:12.018Z,8.00
2022-11-22T09:36:26.971Z,8.10
2022-11-22T09:38:30.601Z,8.10
2022-11-22T09:40:32.339Z,8.20
2022-11-22T09:42:52.837Z,8.20
2022-11-22T09:45:12.450Z,8.20
2022-11-22T09:47:21.788Z,8.30
2022-11-22T09:49:26.603Z,8.30
2022-11-22T09:51:39.712Z,8.40
2022-11-22T09:54:06.221Z,8.40
2022-11-22T09:56:17.607Z,8.40
2022-11-22T09:58:39.831Z,8.40
2022-11-22T10:00:47.758Z,8.40
2022-11-22T10:03:01.663Z,8.40
2022-11-22T10:05:13.310Z,8.40
2022-11-22T10:07:19.990Z,8.40
2022-11-22T10:09:36.730Z,8.40
2022-11-22T10:11:41.654Z,8.40
2022-11-22T10:13:48.853Z,8.40
2022-11-22T10:16:03.713Z,8.40
2022-11-22T10:18:40.835Z,8.40
2022-11-22T10:20:48.642Z,8.30
2022-11-22T10:22:51.432Z,8.40
2022-11-22T10:24:53.252Z,8.30
2022-11-22T10:26:59.460Z,8.30
2022-11-22T10:29:25.880Z,8.30
2022-11-22T10:32:00.577Z,8.40
2022-11-22T10:34:45.285Z,8.40
2022-11-22T10:37:11.491Z,8.40
2022-11-22T10:39:22.131Z,8.50
2022-11-22T10:41:33.866Z,8.50
2022-11-22T10:44:05.601Z,8.50
2022-11-22T10:46:53.664Z,8.50
2022-11-22T10:49:07.389Z,8.50
2022-11-22T10:51:25.018Z,8.50
2022-11-22T10:53:48.607Z,8.50
2022-11-22T10:56:06.396Z,8.50
2022-11-22T10:58:21.846Z,8.50
2022-11-22T11:00:25.111Z,8.50
2022-11-22T11:02:46.889Z,8.50
2022-11-22T11:04:49.999Z,8.40
2022-11-22T11:07:16.180Z,8.40
2022-11-22T11:11:46.799Z,8.40
2022-11-22T11:13:59.770Z,8.30
2022-11-22T11:16:05.914Z,8.30
2022-11-22T11:18:24.051Z,8.40
2022-11-22T11:20:28.932Z,8.30
2022-11-22T11:23:12.385Z,8.30
2022-11-22T11:24:56.563Z,8.30
2022-11-22T11:27:00.108Z,8.30
2022-11-22T11:29:17.197Z,8.30
2022-11-22T11:31:21.726Z,8.40
2022-11-22T11:33:33.320Z,8.30
2022-11-22T11:35:35.014Z,8.30
2022-11-22T11:37:38.598Z,8.30
2022-11-22T11:39:46.450Z,8.30
2022-11-22T11:41:48.673Z,8.30
2022-11-22T11:43:52.943Z,8.30
2022-11-22T11:45:54.747Z,8.30
2022-11-22T11:47:56.940Z,8.30
2022-11-22T11:49:58.914Z,8.30
2022-11-22T11:52:22.528Z,8.30
2022-11-22T11:54:32.222Z,8.40
2022-11-22T11:56:50.814Z,8.40
2022-11-22T11:58:54.830Z,8.40
2022-11-22T12:00:57.440Z,8.40
2022-11-22T12:03:01.742Z,8.70
2022-11-22T12:05:06.240Z,8.50
2022-11-22T12:07:20.428Z,8.40
2022-11-22T12:09:31.058Z,8.50
2022-11-22T12:11:49.020Z,8.50
2022-11-22T12:14:18.927Z,8.40
2022-11-22T12:16:26.099Z,8.40
2022-11-22T12:18:37.474Z,8.50
2022-11-22T12:20:51.512Z,8.50
2022-11-22T12:22:59.639Z,8.50
2022-11-22T12:25:33.034Z,8.40
2022-11-22T12:27:35.265Z,8.50
2022-11-22T12:29:40.707Z,8.50
2022-11-22T12:31:57.913Z,8.50
2022-11-22T12:34:12.625Z,8.50
2022-11-22T12:36:40.097Z,8.50
2022-11-22T12:38:45.289Z,8.60
2022-11-22T12:40:53.826Z,8.60
2022-11-22T12:42:58.031Z,8.80
2022-11-22T12:45:09.619Z,8.60
2022-11-22T12:47:16.529Z,8.60
2022-11-22T12:49:42.357Z,8.50
2022-11-22T12:51:56.180Z,8.50
2022-11-22T12:54:03.112Z,8.60
2022-11-22T12:56:21.010Z,8.50
2022-11-22T12:59:02.240Z,8.50
2022-11-22T13:01:26.109Z,8.60
2022-11-22T13:03:41.826Z,8.50
2022-11-22T13:05:48.598Z,8.60
2022-11-22T13:08:05.699Z,8.60
2022-11-22T13:10:44.987Z,8.60
2022-11-22T13:12:48.799Z,8.60
2022-11-22T13:14:55.734Z,8.60
2022-11-22T13:16:57.728Z,8.60
2022-11-22T13:19:03.421Z,8.60
2022-11-22T13:21:29.001Z,8.60
2022-11-22T13:23:57.850Z,8.60
2022-11-22T13:26:13.420Z,8.60
2022-11-22T13:28:24.417Z,8.60
2022-11-22T13:30:29.565Z,8.70
2022-11-22T13:32:35.208Z,8.70
2022-11-22T13:34:42.541Z,8.70
2022-11-22T13:36:45.145Z,8.70
2022-11-22T13:38:47.121Z,8.60
2022-11-22T13:40:53.826Z,8.70
2022-11-22T13:43:17.855Z,8.70
2022-11-22T13:45:24.905Z,8.80
2022-11-22T13:47:26.586Z,8.80
2022-11-22T13:49:37.971Z,8.80
2022-11-22T13:51:54.470Z,8.80
2022-11-22T13:54:34.736Z,8.80
2022-11-22T13:56:39.705Z,8.80
2022-11-22T13:58:54.574Z,8.80
2022-11-22T14:00:57.383Z,8.80
2022-11-22T14:03:39.880Z,8.80
2022-11-22T14:05:47.110Z,8.80
2022-11-22T14:07:54.465Z,8.80
2022-11-22T14:09:58.624Z,8.80
2022-11-22T14:12:21.321Z,8.90
2022-11-22T14:14:40.377Z,8.90
2022-11-22T14:16:57.699Z,8.80
2022-11-22T14:19:04.350Z,8.80
2022-11-22T14:21:27.037Z,8.90
2022-11-22T14:23:37.691Z,8.90
2022-11-22T14:25:42.074Z,8.80
2022-11-22T14:28:08.079Z,8.90
2022-11-22T14:30:18.186Z,8.90
2022-11-22T14:32:25.095Z,9.00
2022-11-22T14:34:29.724Z,8.90
2022-11-22T14:36:31.757Z,9.00
2022-11-22T14:38:41.016Z,9.00
2022-11-22T14:40:42.793Z,9.00
2022-11-22T14:42:49.575Z,9.00
2022-11-22T14:44:52.255Z,9.00
2022-11-22T14:47:04.290Z,9.00
2022-11-22T14:49:21.777Z,9.00
2022-11-22T14:51:32.105Z,9.10
2022-11-22T14:53:45.766Z,9.10
2022-11-22T14:55:49.168Z,9.10
2022-11-22T14:58:00.568Z,9.10
2022-11-22T15:00:08.968Z,9.10
2022-11-22T15:02:13.686Z,9.10
2022-11-22T15:09:11.062Z,9.10
2022-11-22T15:09:18.386Z,9.00
2022-11-22T15:10:02.279Z,9.10
2022-11-22T15:12:11.909Z,9.00
2022-11-22T15:14:35.099Z,9.00
2022-11-22T15:58:23.689Z,9.10
2022-11-22T16:00:27.945Z,9.10
2022-11-22T16:02:32.200Z,9.10
2022-11-22T16:04:36.189Z,9.10
2022-11-22T16:06:38.323Z,9.10
2022-11-22T16:08:48.587Z,9.10
2022-11-22T16:10:51.412Z,9.10
2022-11-22T16:12:53.812Z,9.10
2022-11-22T16:14:56.231Z,9.20
2022-11-22T16:17:26.917Z,9.20
2022-11-22T16:19:30.708Z,9.20
2022-11-22T16:21:32.784Z,9.20
2022-11-22T16:23:37.197Z,9.20
2022-11-22T16:25:50.543Z,9.20
2022-11-22T16:27:52.395Z,9.20
2022-11-22T16:29:54.278Z,9.20
2022-11-22T16:32:15.218Z,9.20
2022-11-22T16:34:17.356Z,9.20
2022-11-22T16:36:20.859Z,9.20
2022-11-22T16:38:23.510Z,9.30
2022-11-22T16:40:25.267Z,9.20
2022-11-22T16:42:27.108Z,9.20
2022-11-22T16:44:28.971Z,9.30
2022-11-22T16:46:33.220Z,9.30
2022-11-22T16:48:35.034Z,9.30
2022-11-22T16:50:38.950Z,9.30
2022-11-22T16:52:42.070Z,9.30
2022-11-22T16:54:43.974Z,9.20
2022-11-22T16:56:46.295Z,9.20
2022-11-22T16:58:49.924Z,9.20
2022-11-22T17:00:53.900Z,9.30
2022-11-22T17:02:55.649Z,9.30
2022-11-22T17:04:57.764Z,9.30
2022-11-22T17:06:59.509Z,9.30
2022-11-22T17:09:01.536Z,9.30
2022-11-22T17:11:03.371Z,9.30
2022-11-22T17:13:05.792Z,9.30
2022-11-22T17:15:12.807Z,9.30
2022-11-22T17:17:15.019Z,9.30
2022-11-22T17:19:52.784Z,9.30
2022-11-22T17:21:39.004Z,9.30
2022-11-22T17:23:40.807Z,9.30
2022-11-22T17:25:42.564Z,9.30
2022-11-22T17:27:48.045Z,9.30
2022-11-22T17:29:53.381Z,9.30
2022-11-22T17:31:55.300Z,9.30
2022-11-22T17:33:58.695Z,9.40
2022-11-22T17:36:00.411Z,9.30
2022-11-22T17:38:02.301Z,9.40
2022-11-22T17:40:06.793Z,9.40
2022-11-22T17:42:08.746Z,9.40
2022-11-22T17:44:20.654Z,9.40
2022-11-22T17:46:38.226Z,9.40
2022-11-22T17:48:40.032Z,9.40
2022-11-22T17:50:41.776Z,9.40
2022-11-22T17:52:43.551Z,9.40
2022-11-22T17:54:45.420Z,9.40
2022-11-22T17:56:47.287Z,9.50
2022-11-22T17:58:49.256Z,9.50
2022-11-22T18:00:51.031Z,9.50
2022-11-22T18:02:52.847Z,9.50
2022-11-22T18:04:56.585Z,9.50
2022-11-22T18:06:58.327Z,9.50
2022-11-22T18:09:00.813Z,9.50
2022-11-22T18:11:04.089Z,9.50
2022-11-22T18:13:20.741Z,9.30
2022-11-22T18:15:23.548Z,9.50
2022-11-22T18:17:25.270Z,9.50
2022-11-22T18:19:27.063Z,9.60
2022-11-22T18:21:31.016Z,9.60
2022-11-22T18:23:36.362Z,9.60
2022-11-22T18:25:38.132Z,9.50
2022-11-22T18:27:42.260Z,9.50
2022-11-22T18:29:45.045Z,9.50
2022-11-22T18:31:52.021Z,9.50
2022-11-22T18:33:54.485Z,9.60
2022-11-22T18:36:06.879Z,9.60
2022-11-22T18:38:08.651Z,9.50
2022-11-22T18:40:11.118Z,9.50
2022-11-22T18:42:15.100Z,9.50
2022-11-22T18:44:17.139Z,9.60
2022-11-22T18:46:18.824Z,9.50
2022-11-22T18:48:20.683Z,9.50
2022-11-22T18:50:22.476Z,9.50
2022-11-22T18:52:25.385Z,9.50
2022-11-22T18:54:27.219Z,9.50
2022-11-22T18:56:29.584Z,9.50
2022-11-22T18:58:34.842Z,9.50
2022-11-22T19:00:37.143Z,9.50
2022-11-22T19:02:39.015Z,9.50
2022-11-22T19:04:40.765Z,9.50
2022-11-22T19:06:43.584Z,9.50
2022-11-22T19:08:46.367Z,9.50
2022-11-22T19:10:56.860Z,9.60
2022-11-22T19:12:58.591Z,9.60
2022-11-22T19:15:00.525Z,9.60
2022-11-22T19:17:03.018Z,9.60
2022-11-22T19:19:04.890Z,9.60
2022-11-22T19:21:09.023Z,9.60
2022-11-22T19:23:10.774Z,9.70
2022-11-22T19:25:12.544Z,9.70
2022-11-22T19:27:14.425Z,9.70
2022-11-22T19:29:16.577Z,9.70
2022-11-22T19:31:21.962Z,9.70
2022-11-22T19:33:23.690Z,9.80
2022-11-22T19:35:25.419Z,9.80
2022-11-22T19:37:27.148Z,9.70
2022-11-22T19:39:29.182Z,9.70
2022-11-22T19:41:31.494Z,9.70
2022-11-22T19:43:33.209Z,9.70
2022-11-22T19:45:34.919Z,9.70
2022-11-22T19:47:36.722Z,9.70
2022-11-22T19:49:38.584Z,9.70
2022-11-22T19:51:40.429Z,9.70
2022-11-22T19:53:44.733Z,9.70
2022-11-22T19:55:46.479Z,9.70
2022-11-22T19:57:48.440Z,9.70
2022-11-22T19:59:50.346Z,9.70
2022-11-22T20:01:52.133Z,9.70
2022-11-22T20:03:59.649Z,9.70
2022-11-22T20:06:02.950Z,9.70
2022-11-22T20:08:05.020Z,9.70
2022-11-22T20:10:07.062Z,9.70
2022-11-22T20:12:08.873Z,9.70
2022-11-22T20:14:10.984Z,9.70
2022-11-22T20:16:15.267Z,9.70
2022-11-22T20:18:17.119Z,9.70
2022-11-22T20:20:18.990Z,9.70
2022-11-22T20:22:20.688Z,9.70
2022-11-22T20:24:22.532Z,9.60
2022-11-22T20:26:25.429Z,9.70
2022-11-22T20:28:27.153Z,9.70
2022-11-22T20:30:28.847Z,9.70
2022-11-22T20:32:30.696Z,9.60
2022-11-22T20:34:35.700Z,9.60
2022-11-22T20:36:38.070Z,9.60
2022-11-22T20:38:41.255Z,9.60
2022-11-22T20:40:43.179Z,9.60
2022-11-22T20:42:44.905Z,9.60
2022-11-22T20:44:46.623Z,9.60
2022-11-22T20:46:48.708Z,9.60
2022-11-22T20:48:53.199Z,9.60
2022-11-22T20:50:55.016Z,9.60
2022-11-22T20:52:56.739Z,9.60
2022-11-22T20:55:04.635Z,9.60
2022-11-22T20:57:07.139Z,9.60
2022-11-22T20:59:08.934Z,9.60
2022-11-22T21:01:20.193Z,9.60
2022-11-22T21:03:22.990Z,9.70
2022-11-22T21:05:24.739Z,9.70
2022-11-22T21:07:26.504Z,9.70
2022-11-22T21:09:28.345Z,9.70
2022-11-22T21:11:31.203Z,9.70
2022-11-22T21:13:33.669Z,9.70
2022-11-22T21:15:35.820Z,9.70
2022-11-22T21:17:50.531Z,9.70
2022-11-22T21:19:59.233Z,9.70
2022-11-22T21:22:02.565Z,9.60
2022-11-22T21:24:06.530Z,9.70
2022-11-22T21:26:08.656Z,9.70
2022-11-22T21:28:10.401Z,9.70
2022-11-22T21:30:12.700Z,9.70
2022-11-22T21:32:15.152Z,9.70
2022-11-22T21:34:16.869Z,9.70
2022-11-22T21:36:19.656Z,9.60
2022-11-22T21:38:30.947Z,9.70
2022-11-22T21:40:33.102Z,9.70
2022-11-22T21:42:35.766Z,9.70
2022-11-22T21:44:37.465Z,9.70
2022-11-22T21:46:39.701Z,9.70
2022-11-22T21:49:10.599Z,9.70
2022-11-22T21:51:14.138Z,9.70
2022-11-22T21:53:15.926Z,9.70
2022-11-22T21:55:17.948Z,9.70
2022-11-22T21:57:19.768Z,9.80
2022-11-22T21:59:21.887Z,9.70
2022-11-22T22:01:24.437Z,9.80
2022-11-22T22:03:26.969Z,9.70
2022-11-22T22:05:54.090Z,9.80
2022-11-22T22:07:56.046Z,9.80
2022-11-22T22:09:57.838Z,9.80
2022-11-22T22:11:59.580Z,9.80
2022-11-22T22:14:01.462Z,9.80
2022-11-22T22:16:06.668Z,9.80
2022-11-22T22:18:08.695Z,9.80
2022-11-22T22:20:11.048Z,9.80
2022-11-22T22:22:12.804Z,9.80
2022-11-22T22:24:14.556Z,9.80
2022-11-22T22:26:17.398Z,9.80
2022-11-22T22:28:19.201Z,9.80
2022-11-22T22:30:22.937Z,9.80
2022-11-22T22:32:25.547Z,9.80
2022-11-22T22:34:27.595Z,9.80
2022-11-22T22:36:29.345Z,9.80
2022-11-22T22:38:31.911Z,9.90
2022-11-22T22:40:33.889Z,9.80
2022-11-22T22:42:35.729Z,9.80
2022-11-22T22:44:37.490Z,9.80
2022-11-22T22:46:39.250Z,9.90
2022-11-22T22:48:41.411Z,9.80
2022-11-22T22:50:43.174Z,9.90
2022-11-22T22:52:45.049Z,9.80
2022-11-22T22:54:47.192Z,9.90
2022-11-22T22:56:49.287Z,10.00
2022-11-22T22:58:58.198Z,9.90
2022-11-22T23:01:22.296Z,9.90
2022-11-22T23:03:24.065Z,9.90
2022-11-22T23:05:25.838Z,9.90
2022-11-22T23:07:27.540Z,9.80
2022-11-22T23:09:29.450Z,9.80
2022-11-22T23:11:51.810Z,9.90
2022-11-22T23:13:53.634Z,9.90
2022-11-22T23:15:59.067Z,9.80
2022-11-22T23:18:00.844Z,9.90
2022-11-22T23:20:02.842Z,9.80
2022-11-22T23:22:05.149Z,9.80
2022-11-22T23:24:07.814Z,9.80
2022-11-22T23:26:11.852Z,9.90
2022-11-22T23:28:13.516Z,9.90
2022-11-22T23:30:15.880Z,9.80
2022-11-22T23:32:17.608Z,9.80
2022-11-22T23:34:19.585Z,9.90
2022-11-22T23:36:22.582Z,9.90
2022-11-22T23:38:24.334Z,9.90
2022-11-22T23:40:26.130Z,9.90
2022-11-22T23:42:28.107Z,10.00
2022-11-22T23:44:29.887Z,10.00
2022-11-22T23:46:31.736Z,9.90
2022-11-22T23:48:33.517Z,10.00
2022-11-22T23:50:37.489Z,10.00
2022-11-22T23:52:39.432Z,10.00
2022-11-22T23:54:41.257Z,10.00
2022-11-22T23:56:43.297Z,10.00
2022-11-22T23:58:45.500Z,10.00
